createdAt,value
2023-04-02T00:02:31.006Z,68.60
2023-04-02T00:05:34.657Z,68.67
2023-04-02T00:08:10.135Z,68.68
2023-04-02T00:10:41.045Z,68.53
2023-04-02T00:13:33.080Z,68.54
2023-04-02T00:16:06.687Z,68.50
2023-04-02T00:18:45.344Z,68.61
2023-04-02T00:21:22.511Z,68.65
2023-04-02T00:23:54.811Z,68.58
2023-04-02T00:26:31.870Z,68.57
2023-04-02T00:29:04.918Z,68.59
2023-04-02T00:31:39.394Z,68.45
2023-04-02T00:34:16.390Z,68.44
2023-04-02T00:36:51.491Z,68.57
2023-04-02T00:39:23.824Z,68.71
2023-04-02T00:42:05.269Z,68.51
2023-04-02T00:44:43.093Z,68.56
2023-04-02T00:47:20.389Z,68.36
2023-04-02T00:49:57.097Z,68.40
2023-04-02T00:52:30.298Z,68.33
2023-04-02T00:55:08.025Z,68.28
2023-04-02T00:57:43.004Z,68.41
2023-04-02T01:00:29.349Z,68.38
2023-04-02T01:03:34.487Z,68.32
2023-04-02T01:06:11.711Z,67.97
2023-04-02T01:08:54.185Z,68.05
2023-04-02T01:11:39.378Z,68.12
2023-04-02T01:14:19.998Z,67.97
2023-04-02T01:16:56.356Z,67.99
2023-04-02T01:20:15.892Z,68.05
2023-04-02T01:22:56.210Z,68.08
2023-04-02T01:25:31.722Z,68.04
2023-04-02T01:28:08.576Z,67.96
2023-04-02T01:30:39.953Z,68.03
2023-04-02T01:33:10.934Z,67.89
2023-04-02T01:35:46.166Z,68.03
2023-04-02T01:38:25.927Z,68.08
2023-04-02T01:41:04.992Z,67.91
2023-04-02T01:43:42.173Z,67.83
2023-04-02T01:49:14.088Z,67.79
2023-04-02T01:51:46.694Z,67.75
2023-04-02T01:54:20.715Z,67.92
2023-04-02T01:56:52.912Z,67.97
2023-04-02T01:59:24.711Z,67.92
2023-04-02T02:02:05.306Z,67.87
2023-04-02T02:04:37.699Z,67.90
2023-04-02T02:07:17.552Z,68.03
2023-04-02T02:09:52.104Z,68.04
2023-04-02T02:12:23.512Z,67.92
2023-04-02T02:14:54.499Z,68.00
2023-04-02T02:17:34.571Z,68.04
2023-04-02T02:20:11.129Z,67.91
2023-04-02T02:22:45.187Z,67.97
2023-04-02T02:25:19.471Z,67.86
2023-04-02T02:28:07.488Z,67.93
2023-04-02T02:30:44.251Z,67.92
2023-04-02T02:33:22.099Z,67.77
2023-04-02T02:35:57.753Z,67.81
2023-04-02T02:38:54.288Z,67.79
2023-04-02T02:41:37.068Z,67.85
2023-04-02T02:44:15.514Z,67.72
2023-04-02T02:46:51.894Z,67.68
2023-04-02T02:49:28.520Z,67.78
2023-04-02T02:52:07.824Z,67.87
2023-04-02T02:54:48.984Z,67.96
2023-04-02T02:57:23.619Z,67.94
2023-04-02T02:59:56.252Z,68.04
2023-04-02T03:02:29.256Z,68.18
2023-04-02T03:05:02.913Z,68.25
2023-04-02T03:07:37.342Z,68.18
2023-04-02T03:10:16.248Z,68.11
2023-04-02T03:12:52.861Z,68.08
2023-04-02T03:15:34.427Z,68.03
2023-04-02T03:18:13.067Z,68.26
2023-04-02T03:20:49.790Z,68.34
2023-04-02T03:23:24.772Z,68.45
2023-04-02T03:26:02.810Z,68.29
2023-04-02T03:28:37.492Z,68.52
2023-04-02T03:31:16.064Z,68.56
2023-04-02T03:33:52.230Z,68.64
2023-04-02T03:36:29.720Z,68.60
2023-04-02T03:39:10.164Z,68.55
2023-04-02T03:41:46.229Z,68.51
2023-04-02T03:44:27.508Z,68.51
2023-04-02T03:47:02.603Z,68.56
2023-04-02T03:49:39.662Z,68.52
2023-04-02T03:52:14.560Z,68.69
2023-04-02T03:54:53.916Z,68.57
2023-04-02T03:57:30.815Z,68.59
2023-04-02T04:00:07.059Z,68.58
2023-04-02T04:02:48.976Z,68.40
2023-04-02T04:05:27.445Z,68.46
2023-04-02T04:08:04.637Z,68.41
2023-04-02T04:10:36.186Z,68.46
2023-04-02T04:13:12.949Z,68.41
2023-04-02T04:15:50.176Z,68.42
2023-04-02T04:18:38.059Z,68.36
2023-04-02T04:21:29.919Z,68.36
2023-04-02T04:24:08.128Z,68.27
2023-04-02T04:26:41.100Z,68.15
2023-04-02T04:29:26.925Z,68.15
2023-04-02T04:32:11.061Z,68.28
2023-04-02T04:34:51.700Z,68.29
2023-04-02T04:37:29.239Z,68.17
2023-04-02T04:40:05.629Z,68.07
2023-04-02T04:42:41.247Z,68.08
2023-04-02T04:45:27.145Z,68.07
2023-04-02T04:48:02.868Z,67.89
2023-04-02T04:50:39.794Z,67.86
2023-04-02T04:53:17.374Z,67.93
2023-04-02T04:55:53.444Z,67.93
2023-04-02T04:58:28.979Z,68.12
2023-04-02T05:01:01.839Z,67.97
2023-04-02T05:03:39.183Z,67.85
2023-04-02T05:06:25.329Z,67.92
2023-04-02T05:09:02.425Z,67.84
2023-04-02T05:11:38.260Z,67.74
2023-04-02T05:14:17.228Z,67.85
2023-04-02T05:16:55.334Z,67.91
2023-04-02T05:19:35.774Z,67.90
2023-04-02T05:22:21.777Z,68.04
2023-04-02T05:25:01.232Z,67.93
2023-04-02T05:27:39.040Z,68.11
2023-04-02T05:30:34.354Z,68.04
2023-04-02T05:33:15.192Z,67.95
2023-04-02T05:35:50.489Z,68.07
2023-04-02T05:38:24.824Z,68.07
2023-04-02T05:41:02.350Z,67.99
2023-04-02T05:43:38.249Z,68.13
2023-04-02T05:46:18.546Z,67.98
2023-04-02T05:48:56.532Z,68.09
2023-04-02T05:51:36.735Z,67.97
2023-04-02T05:54:23.520Z,68.03
2023-04-02T05:57:06.146Z,67.77
2023-04-02T05:59:43.114Z,67.82
2023-04-02T06:02:23.886Z,67.77
2023-04-02T06:04:58.862Z,67.59
2023-04-02T06:07:41.975Z,67.66
2023-04-02T06:10:18.145Z,67.81
2023-04-02T06:12:54.328Z,67.65
2023-04-02T06:15:26.071Z,67.62
2023-04-02T06:18:07.707Z,67.61
2023-04-02T06:20:39.240Z,67.34
2023-04-02T06:23:17.552Z,67.33
2023-04-02T06:25:54.506Z,67.56
2023-04-02T06:28:31.816Z,67.54
2023-04-02T06:31:09.116Z,67.64
2023-04-02T06:33:41.042Z,67.48
2023-04-02T06:36:13.449Z,67.37
2023-04-02T06:38:46.416Z,67.53
2023-04-02T06:41:21.485Z,67.45
2023-04-02T06:44:17.678Z,67.59
2023-04-02T06:47:00.049Z,67.43
2023-04-02T06:49:39.760Z,67.62
2023-04-02T06:52:20.440Z,67.71
2023-04-02T06:54:52.113Z,67.67
2023-04-02T06:57:22.956Z,67.90
2023-04-02T06:59:55.590Z,67.85
2023-04-02T07:02:33.847Z,67.87
2023-04-02T07:05:09.256Z,67.84
2023-04-02T07:07:45.655Z,67.87
2023-04-02T07:10:32.941Z,67.88
2023-04-02T07:13:29.172Z,68.00
2023-04-02T07:16:05.019Z,67.94
2023-04-02T07:18:36.968Z,67.97
2023-04-02T07:21:10.132Z,67.61
2023-04-02T07:23:41.991Z,67.68
2023-04-02T07:26:17.736Z,67.60
2023-04-02T07:28:49.147Z,67.59
2023-04-02T07:31:23.648Z,67.72
2023-04-02T07:33:55.862Z,67.73
2023-04-02T07:36:28.155Z,67.37
2023-04-02T07:38:59.165Z,67.61
2023-04-02T07:41:32.669Z,67.69
2023-04-02T07:44:05.054Z,67.69
2023-04-02T07:46:35.954Z,67.55
2023-04-02T07:49:07.719Z,67.82
2023-04-02T07:51:38.724Z,67.75
2023-04-02T07:54:10.318Z,67.70
2023-04-02T07:56:41.346Z,67.73
2023-04-02T07:59:12.455Z,67.59
2023-04-02T08:01:43.454Z,67.54
2023-04-02T08:04:20.055Z,67.57
2023-04-02T08:06:52.997Z,67.71
2023-04-02T08:09:23.868Z,67.42
2023-04-02T08:11:54.772Z,67.61
2023-04-02T08:14:25.559Z,67.67
2023-04-02T08:16:57.527Z,67.71
2023-04-02T08:19:28.629Z,67.88
2023-04-02T08:21:59.512Z,67.90
2023-04-02T08:24:30.343Z,67.87
2023-04-02T08:27:02.460Z,68.01
2023-04-02T08:29:33.677Z,68.12
2023-04-02T08:32:04.785Z,67.93
2023-04-02T08:34:35.574Z,67.90
2023-04-02T08:37:06.635Z,67.79
2023-04-02T08:39:37.415Z,67.89
2023-04-02T08:42:19.416Z,67.77
2023-04-02T08:45:21.271Z,67.85
2023-04-02T08:48:00.078Z,67.81
2023-04-02T08:50:35.553Z,67.83
2023-04-02T08:53:06.617Z,67.84
2023-04-02T08:55:43.392Z,67.48
2023-04-02T08:58:28.499Z,67.76
2023-04-02T09:01:02.925Z,67.64
2023-04-02T09:03:40.455Z,67.81
2023-04-02T09:06:16.445Z,67.97
2023-04-02T09:08:51.769Z,67.93
2023-04-02T09:11:27.343Z,67.90
2023-04-02T09:14:00.436Z,67.72
2023-04-02T09:16:48.720Z,67.77
2023-04-02T09:19:23.848Z,67.93
2023-04-02T09:22:09.662Z,67.64
2023-04-02T09:24:40.654Z,67.50
2023-04-02T09:27:21.480Z,67.46
2023-04-02T09:29:56.383Z,67.60
2023-04-02T09:32:39.385Z,67.60
2023-04-02T09:35:25.567Z,67.73
2023-04-02T09:38:21.056Z,67.86
2023-04-02T09:40:59.727Z,67.51
2023-04-02T09:43:32.574Z,67.41
2023-04-02T09:46:05.843Z,67.49
2023-04-02T09:48:43.532Z,67.55
2023-04-02T09:51:21.790Z,67.58
2023-04-02T09:54:07.387Z,67.83
2023-04-02T09:56:39.960Z,67.74
2023-04-02T09:59:18.501Z,67.74
2023-04-02T10:01:58.388Z,67.48
2023-04-02T10:04:48.644Z,67.32
2023-04-02T10:07:38.303Z,67.48
2023-04-02T10:10:25.239Z,67.39
2023-04-02T10:13:07.895Z,67.30
2023-04-02T10:15:45.783Z,67.47
2023-04-02T10:18:22.746Z,67.57
2023-04-02T10:20:55.982Z,67.61
2023-04-02T10:23:33.196Z,67.65
2023-04-02T10:26:20.623Z,67.40
2023-04-02T10:29:14.496Z,67.47
2023-04-02T10:32:04.643Z,67.51
2023-04-02T10:34:44.498Z,67.69
2023-04-02T10:37:52.247Z,67.53
2023-04-02T10:40:29.649Z,67.51
2023-04-02T10:43:23.331Z,67.48
2023-04-02T10:46:01.497Z,67.60
2023-04-02T10:48:41.441Z,67.57
2023-04-02T10:51:26.454Z,67.54
2023-04-02T10:54:04.775Z,67.70
2023-04-02T10:56:44.421Z,67.58
2023-04-02T10:59:21.967Z,67.73
2023-04-02T11:01:57.040Z,67.85
2023-04-02T11:04:31.696Z,67.81
2023-04-02T11:07:18.132Z,67.76
2023-04-02T11:09:56.463Z,67.86
2023-04-02T11:12:34.551Z,67.70
2023-04-02T11:15:19.354Z,67.66
2023-04-02T11:17:51.016Z,67.50
2023-04-02T11:20:52.972Z,67.44
2023-04-02T11:24:30.588Z,67.72
2023-04-02T11:27:19.932Z,67.57
2023-04-02T11:30:14.453Z,67.63
2023-04-02T11:32:49.676Z,67.78
2023-04-02T11:35:40.928Z,67.77
2023-04-02T11:39:04.607Z,67.85
2023-04-02T11:42:25.080Z,68.06
2023-04-02T11:44:59.645Z,68.29
2023-04-02T11:47:35.149Z,68.37
2023-04-02T11:50:29.774Z,68.23
2023-04-02T11:53:06.791Z,68.22
2023-04-02T11:55:46.001Z,68.32
2023-04-02T11:59:04.169Z,68.07
2023-04-02T12:02:08.847Z,68.04
2023-04-02T12:05:14.911Z,68.31
2023-04-02T12:08:17.999Z,68.15
2023-04-02T12:11:00.636Z,68.20
2023-04-02T12:13:54.626Z,68.06
2023-04-02T12:16:31.717Z,67.89
2023-04-02T12:19:47.953Z,68.19
2023-04-02T12:23:02.404Z,68.09
2023-04-02T12:25:40.562Z,68.05
2023-04-02T12:28:56.289Z,67.93
2023-04-02T12:31:30.414Z,68.22
2023-04-02T12:34:03.902Z,67.96
2023-04-02T12:36:36.325Z,68.11
2023-04-02T12:39:19.701Z,68.04
2023-04-02T12:41:50.740Z,67.94
2023-04-02T12:44:23.433Z,68.02
2023-04-02T12:46:54.740Z,67.97
2023-04-02T12:49:37.769Z,68.23
2023-04-02T12:52:11.870Z,68.07
2023-04-02T12:54:50.847Z,67.88
2023-04-02T12:57:41.256Z,68.01
2023-04-02T13:00:37.895Z,67.96
2023-04-02T13:03:34.980Z,68.10
2023-04-02T13:06:19.419Z,68.06
2023-04-02T13:08:52.993Z,68.23
2023-04-02T13:11:38.478Z,68.00
2023-04-02T13:14:22.124Z,67.68
2023-04-02T13:16:53.087Z,67.89
2023-04-02T13:19:34.114Z,67.96
2023-04-02T13:22:28.669Z,67.85
2023-04-02T13:25:00.143Z,67.81
2023-04-02T13:27:30.957Z,67.67
2023-04-02T13:30:21.850Z,67.59
2023-04-02T13:32:59.601Z,67.56
2023-04-02T13:35:33.445Z,67.17
2023-04-02T13:38:05.926Z,67.48
2023-04-02T13:40:38.409Z,67.51
2023-04-02T13:43:18.723Z,67.52
2023-04-02T13:45:54.248Z,67.44
2023-04-02T13:48:29.109Z,67.21
2023-04-02T13:50:59.983Z,67.04
2023-04-02T13:53:34.395Z,67.27
2023-04-02T13:56:06.559Z,67.30
2023-04-02T13:58:37.401Z,67.48
2023-04-02T14:01:11.378Z,67.47
2023-04-02T14:03:45.498Z,67.63
2023-04-02T14:06:28.189Z,67.58
2023-04-02T14:09:07.062Z,67.60
2023-04-02T14:11:52.624Z,67.64
2023-04-02T14:14:27.138Z,67.74
2023-04-02T14:17:10.719Z,67.75
2023-04-02T14:20:04.990Z,67.92
2023-04-02T14:22:51.747Z,67.55
2023-04-02T14:25:33.289Z,67.33
2023-04-02T14:28:16.756Z,67.61
2023-04-02T14:30:57.906Z,67.69
2023-04-02T14:37:05.259Z,67.93
2023-04-02T14:40:04.429Z,67.71
2023-04-02T14:42:46.034Z,67.72
2023-04-02T14:45:24.876Z,67.74
2023-04-02T14:48:02.165Z,67.68
2023-04-02T14:50:39.046Z,67.61
2023-04-02T14:53:18.397Z,67.80
2023-04-02T14:56:19.761Z,67.71
2023-04-02T14:59:04.808Z,68.21
2023-04-02T15:02:24.689Z,68.19
2023-04-02T15:05:01.625Z,68.09
2023-04-02T15:07:45.884Z,68.46
2023-04-02T15:10:27.431Z,68.43
2023-04-02T15:13:01.453Z,68.69
2023-04-02T15:15:42.444Z,68.35
2023-04-02T15:18:16.813Z,68.77
2023-04-02T15:21:02.314Z,68.59
2023-04-02T15:24:23.251Z,68.24
2023-04-02T15:27:05.479Z,68.26
2023-04-02T15:29:58.978Z,68.19
2023-04-02T15:32:41.537Z,68.36
2023-04-02T15:35:44.151Z,68.52
2023-04-02T15:38:24.017Z,68.60
2023-04-02T15:40:58.841Z,68.85
2023-04-02T15:43:35.661Z,68.85
2023-04-02T15:46:23.498Z,68.71
2023-04-02T15:53:19.011Z,68.65
2023-04-02T15:55:56.003Z,68.99
2023-04-02T15:58:47.476Z,69.01
2023-04-02T16:01:31.321Z,69.15
2023-04-02T16:04:37.072Z,69.10
2023-04-02T16:07:25.266Z,69.25
2023-04-02T16:10:12.209Z,69.17
2023-04-02T16:12:44.657Z,69.17
2023-04-02T16:15:26.607Z,69.34
2023-04-02T16:18:01.750Z,69.55
2023-04-02T16:20:41.738Z,69.30
2023-04-02T16:23:56.923Z,69.55
2023-04-02T16:27:26.753Z,69.53
2023-04-02T16:30:33.085Z,69.64
2023-04-02T16:33:27.323Z,69.41
2023-04-02T16:36:44.653Z,69.61
2023-04-02T16:39:30.632Z,69.79
2023-04-02T16:42:16.194Z,69.74
2023-04-02T16:45:06.410Z,69.76
2023-04-02T16:48:31.199Z,69.60
2023-04-02T17:13:14.576Z,69.46
2023-04-02T17:15:51.471Z,69.41
2023-04-02T17:18:26.686Z,69.41
2023-04-02T17:21:11.656Z,69.40
2023-04-02T17:23:55.710Z,69.61
2023-04-02T17:26:37.164Z,69.80
2023-04-02T17:29:25.979Z,69.86
2023-04-02T17:32:08.967Z,69.80
2023-04-02T17:34:41.803Z,70.03
2023-04-02T17:37:31.614Z,69.85
2023-04-02T17:40:25.511Z,70.08
2023-04-02T17:43:04.587Z,70.23
2023-04-02T17:45:43.974Z,70.41
2023-04-02T17:48:27.489Z,70.14
2023-04-02T17:51:09.889Z,70.32
2023-04-02T17:54:04.129Z,70.18
2023-04-02T18:01:02.153Z,70.04
2023-04-02T18:04:31.887Z,70.40
2023-04-02T18:07:18.016Z,70.44
2023-04-02T18:09:53.857Z,70.39
2023-04-02T18:12:42.499Z,70.53
2023-04-02T18:15:38.021Z,70.26
2023-04-02T18:18:19.967Z,70.21
2023-04-02T18:21:02.420Z,70.45
2023-04-02T18:23:49.351Z,69.88
2023-04-02T18:26:31.622Z,70.49
2023-04-02T18:29:19.604Z,70.29
2023-04-02T18:31:58.834Z,70.32
2023-04-02T18:34:50.600Z,70.06
2023-04-02T18:37:29.819Z,70.06
2023-04-02T18:40:22.965Z,70.41
2023-04-02T18:43:13.628Z,70.10
2023-04-02T18:45:56.301Z,70.32
2023-04-02T18:48:44.198Z,70.14
2023-04-02T18:51:23.175Z,70.03
2023-04-02T18:54:04.289Z,70.27
2023-04-02T18:56:38.183Z,70.13
2023-04-02T18:59:34.445Z,70.14
2023-04-02T19:02:24.190Z,70.34
2023-04-02T19:05:03.100Z,70.45
2023-04-02T19:07:39.566Z,70.12
2023-04-02T19:10:31.227Z,69.81
2023-04-02T19:13:02.717Z,70.01
2023-04-02T19:15:45.389Z,70.07
2023-04-02T19:18:26.859Z,69.97
2023-04-02T19:21:02.475Z,70.03
2023-04-02T19:24:04.637Z,69.94
2023-04-02T19:26:43.101Z,69.88
2023-04-02T19:29:34.418Z,69.86
2023-04-02T19:32:12.999Z,69.88
2023-04-02T19:34:52.836Z,69.80
2023-04-02T19:37:47.505Z,69.64
2023-04-02T19:41:00.435Z,69.41
2023-04-02T19:43:54.042Z,69.37
2023-04-02T19:46:32.687Z,69.31
2023-04-02T19:49:13.290Z,69.40
2023-04-02T19:51:47.490Z,69.40
2023-04-02T19:54:18.838Z,69.34
2023-04-02T19:56:52.060Z,69.23
2023-04-02T19:59:23.690Z,69.08
2023-04-02T20:02:10.213Z,69.30
2023-04-02T20:04:42.510Z,69.23
2023-04-02T20:07:13.365Z,68.72
2023-04-02T20:09:45.176Z,69.09
2023-04-02T20:12:16.372Z,68.75
2023-04-02T20:14:47.494Z,68.60
2023-04-02T20:17:18.693Z,68.55
2023-04-02T20:19:50.400Z,68.29
2023-04-02T20:22:21.992Z,68.36
2023-04-02T20:24:55.012Z,67.93
2023-04-02T20:27:26.417Z,68.11
2023-04-02T20:29:59.784Z,67.97
2023-04-02T20:32:35.189Z,67.65
2023-04-02T20:35:09.143Z,67.61
2023-04-02T20:37:41.973Z,67.77
2023-04-02T20:40:13.560Z,67.38
2023-04-02T20:42:44.637Z,67.36
2023-04-02T20:45:16.172Z,67.65
2023-04-02T20:47:47.716Z,67.29
2023-04-02T20:50:19.427Z,67.15
2023-04-02T20:52:51.781Z,66.83
2023-04-02T20:55:22.785Z,66.89
2023-04-02T20:57:53.706Z,66.74
2023-04-02T21:00:24.807Z,66.50
2023-04-02T21:02:56.108Z,66.69
2023-04-02T21:05:27.777Z,66.04
2023-04-02T21:07:59.674Z,65.78
2023-04-02T21:10:30.522Z,65.61
2023-04-02T21:13:01.533Z,65.56
2023-04-02T21:15:35.069Z,65.26
2023-04-02T21:18:07.059Z,65.14
2023-04-02T21:20:38.294Z,65.07
2023-04-02T21:23:09.069Z,64.54
2023-04-02T21:25:39.801Z,64.27
2023-04-02T21:28:10.731Z,64.05
2023-04-02T21:30:41.461Z,63.90
2023-04-02T21:33:12.277Z,63.85
2023-04-02T21:35:46.186Z,63.54
2023-04-02T21:38:16.946Z,63.72
2023-04-02T21:40:47.765Z,63.49
2023-04-02T21:43:18.546Z,63.48
2023-04-02T21:45:49.459Z,63.23
2023-04-02T21:48:20.381Z,62.97
2023-04-02T21:50:51.369Z,62.78
2023-04-02T21:53:22.302Z,63.05
2023-04-02T21:56:01.162Z,62.89
2023-04-02T21:58:31.980Z,62.70
2023-04-02T22:01:05.445Z,62.27
2023-04-02T22:03:36.843Z,62.33
2023-04-02T22:06:10.647Z,62.00
2023-04-02T22:08:43.834Z,62.04
2023-04-02T22:11:17.040Z,61.84
2023-04-02T22:13:49.555Z,61.94
2023-04-02T22:16:22.406Z,61.59
2023-04-02T22:18:55.690Z,61.49
2023-04-02T22:21:27.262Z,61.42
2023-04-02T22:23:59.961Z,61.56
2023-04-02T22:26:32.473Z,61.34
2023-04-02T22:29:04.044Z,60.91
2023-04-02T22:31:35.599Z,61.00
2023-04-02T22:34:07.437Z,60.82
2023-04-02T22:36:38.378Z,60.70
2023-04-02T22:39:12.379Z,60.70
2023-04-02T22:41:43.496Z,60.46
2023-04-02T22:44:17.693Z,60.39
2023-04-02T22:46:48.632Z,60.46
2023-04-02T22:49:19.731Z,60.32
2023-04-02T22:51:50.736Z,59.96
2023-04-02T22:54:21.704Z,60.25
2023-04-02T22:56:52.564Z,60.00
2023-04-02T22:59:23.625Z,59.68
2023-04-02T23:01:54.523Z,59.43
2023-04-02T23:04:25.429Z,59.70
2023-04-02T23:06:56.268Z,59.34
2023-04-02T23:09:27.003Z,59.59
2023-04-02T23:11:57.864Z,59.49
2023-04-02T23:14:28.803Z,59.65
2023-04-02T23:16:59.682Z,59.42
2023-04-02T23:19:30.571Z,59.76
2023-04-02T23:22:01.521Z,59.33
2023-04-02T23:24:32.396Z,59.23
2023-04-02T23:27:03.263Z,59.11
2023-04-02T23:29:34.146Z,59.16
2023-04-02T23:32:05.132Z,58.94
2023-04-02T23:34:36.799Z,58.90
2023-04-02T23:37:07.781Z,58.85
2023-04-02T23:39:39.575Z,59.19
2023-04-02T23:42:11.997Z,58.55
2023-04-02T23:44:42.812Z,58.90
2023-04-02T23:47:13.754Z,58.31
2023-04-02T23:49:47.961Z,58.69
2023-04-02T23:52:18.698Z,58.77
2023-04-02T23:54:49.438Z,58.41
2023-04-02T23:57:20.377Z,58.51
2023-04-02T23:59:51.193Z,58.58
